sensor_id;sensor_type;location;lat;lon;timestamp;temperature;humidity
9271;DHT22;4673;53.458;9.940;2023-04-25T00:00:42;7.60;99.90
9271;DHT22;4673;53.458;9.940;2023-04-25T00:03:07;7.70;99.90
9271;DHT22;4673;53.458;9.940;2023-04-25T00:05:34;7.70;99.90
9271;DHT22;4673;53.458;9.940;2023-04-25T00:08:02;7.70;99.90
9271;DHT22;4673;53.458;9.940;2023-04-25T00:10:28;7.80;99.90
9271;DHT22;4673;53.458;9.940;2023-04-25T00:12:54;7.70;99.90
9271;DHT22;4673;53.458;9.940;2023-04-25T00:15:19;7.70;99.90
9271;DHT22;4673;53.458;9.940;2023-04-25T00:17:45;7.60;99.90
9271;DHT22;4673;53.458;9.940;2023-04-25T00:20:11;7.50;99.90
9271;DHT22;4673;53.458;9.940;2023-04-25T00:22:37;7.40;99.90
9271;DHT22;4673;53.458;9.940;2023-04-25T00:25:06;7.30;99.90
9271;DHT22;4673;53.458;9.940;2023-04-25T00:27:32;7.30;99.90
9271;DHT22;4673;53.458;9.940;2023-04-25T00:29:58;7.10;99.90
9271;DHT22;4673;53.458;9.940;2023-04-25T00:32:24;7.20;99.90
9271;DHT22;4673;53.458;9.940;2023-04-25T00:34:50;7.10;99.90
9271;DHT22;4673;53.458;9.940;2023-04-25T00:37:16;7.10;99.90
9271;DHT22;4673;53.458;9.940;2023-04-25T00:39:41;7.10;99.90
9271;DHT22;4673;53.458;9.940;2023-04-25T00:42:08;7.10;99.90
9271;DHT22;4673;53.458;9.940;2023-04-25T00:44:34;7.10;99.90
9271;DHT22;4673;53.458;9.940;2023-04-25T00:47:01;7.00;99.90
9271;DHT22;4673;53.458;9.940;2023-04-25T00:49:27;7.00;99.90
9271;DHT22;4673;53.458;9.940;2023-04-25T00:51:54;6.90;99.90
9271;DHT22;4673;53.458;9.940;2023-04-25T00:54:20;7.00;99.90
9271;DHT22;4673;53.458;9.940;2023-04-25T00:56:45;6.90;99.90
9271;DHT22;4673;53.458;9.940;2023-04-25T00:59:11;6.90;99.90
9271;DHT22;4673;53.458;9.940;2023-04-25T01:01:38;6.80;99.90
9271;DHT22;4673;53.458;9.940;2023-04-25T01:04:04;6.70;99.90
9271;DHT22;4673;53.458;9.940;2023-04-25T01:06:30;6.70;99.90
9271;DHT22;4673;53.458;9.940;2023-04-25T01:08:57;6.70;99.90
9271;DHT22;4673;53.458;9.940;2023-04-25T01:11:23;6.70;99.90
9271;DHT22;4673;53.458;9.940;2023-04-25T01:13:48;6.70;99.90
9271;DHT22;4673;53.458;9.940;2023-04-25T01:16:14;6.70;99.90
9271;DHT22;4673;53.458;9.940;2023-04-25T01:18:40;6.80;99.90
9271;DHT22;4673;53.458;9.940;2023-04-25T01:21:08;6.80;99.90
9271;DHT22;4673;53.458;9.940;2023-04-25T01:23:36;6.70;99.90
9271;DHT22;4673;53.458;9.940;2023-04-25T01:26:02;6.70;99.90
9271;DHT22;4673;53.458;9.940;2023-04-25T01:28:28;6.70;99.90
9271;DHT22;4673;53.458;9.940;2023-04-25T01:31:07;6.60;99.90
9271;DHT22;4673;53.458;9.940;2023-04-25T01:33:33;6.50;99.90
9271;DHT22;4673;53.458;9.940;2023-04-25T01:35:58;6.50;99.90
9271;DHT22;4673;53.458;9.940;2023-04-25T01:38:24;6.60;99.90
9271;DHT22;4673;53.458;9.940;2023-04-25T01:40:51;6.50;99.90
9271;DHT22;4673;53.458;9.940;2023-04-25T01:43:17;6.60;99.90
9271;DHT22;4673;53.458;9.940;2023-04-25T01:45:43;6.50;99.90
9271;DHT22;4673;53.458;9.940;2023-04-25T01:48:10;6.30;99.90
9271;DHT22;4673;53.458;9.940;2023-04-25T01:50:37;6.40;99.90
9271;DHT22;4673;53.458;9.940;2023-04-25T01:53:04;6.30;99.90
9271;DHT22;4673;53.458;9.940;2023-04-25T01:55:30;6.40;99.90
9271;DHT22;4673;53.458;9.940;2023-04-25T01:57:56;6.40;99.90
9271;DHT22;4673;53.458;9.940;2023-04-25T02:00:22;6.40;99.90
9271;DHT22;4673;53.458;9.940;2023-04-25T02:02:48;6.30;99.40
9271;DHT22;4673;53.458;9.940;2023-04-25T02:05:16;6.20;98.20
9271;DHT22;4673;53.458;9.940;2023-04-25T02:07:42;6.10;98.90
9271;DHT22;4673;53.458;9.940;2023-04-25T02:13:29;6.20;99.10
9271;DHT22;4673;53.458;9.940;2023-04-25T02:15:55;6.20;98.90
9271;DHT22;4673;53.458;9.940;2023-04-25T02:18:21;6.10;98.70
9271;DHT22;4673;53.458;9.940;2023-04-25T02:20:46;6.20;98.80
9271;DHT22;4673;53.458;9.940;2023-04-25T02:23:12;6.10;98.60
9271;DHT22;4673;53.458;9.940;2023-04-25T02:25:38;6.10;98.20
9271;DHT22;4673;53.458;9.940;2023-04-25T02:28:04;6.00;97.70
9271;DHT22;4673;53.458;9.940;2023-04-25T02:30:29;6.00;97.50
9271;DHT22;4673;53.458;9.940;2023-04-25T02:32:55;5.90;97.40
9271;DHT22;4673;53.458;9.940;2023-04-25T02:35:21;5.80;96.40
9271;DHT22;4673;53.458;9.940;2023-04-25T02:37:47;5.80;96.20
9271;DHT22;4673;53.458;9.940;2023-04-25T02:40:13;5.80;96.30
9271;DHT22;4673;53.458;9.940;2023-04-25T02:42:38;5.80;96.50
9271;DHT22;4673;53.458;9.940;2023-04-25T02:45:04;5.90;96.90
9271;DHT22;4673;53.458;9.940;2023-04-25T02:47:30;5.80;95.40
9271;DHT22;4673;53.458;9.940;2023-04-25T02:49:56;5.80;94.70
9271;DHT22;4673;53.458;9.940;2023-04-25T02:52:22;5.90;94.30
9271;DHT22;4673;53.458;9.940;2023-04-25T02:54:47;5.90;93.30
9271;DHT22;4673;53.458;9.940;2023-04-25T02:57:13;5.80;93.50
9271;DHT22;4673;53.458;9.940;2023-04-25T02:59:38;5.80;93.60
9271;DHT22;4673;53.458;9.940;2023-04-25T03:02:04;5.80;93.80
9271;DHT22;4673;53.458;9.940;2023-04-25T03:04:30;5.70;92.60
9271;DHT22;4673;53.458;9.940;2023-04-25T03:06:55;5.70;92.90
9271;DHT22;4673;53.458;9.940;2023-04-25T03:09:21;5.70;92.20
9271;DHT22;4673;53.458;9.940;2023-04-25T03:11:48;5.60;91.90
9271;DHT22;4673;53.458;9.940;2023-04-25T03:35:11;5.00;93.20
9271;DHT22;4673;53.458;9.940;2023-04-25T03:38:49;4.80;92.90
9271;DHT22;4673;53.458;9.940;2023-04-25T03:42:05;4.70;93.30
9271;DHT22;4673;53.458;9.940;2023-04-25T03:48:48;4.60;93.00
9271;DHT22;4673;53.458;9.940;2023-04-25T03:51:13;4.60;92.90
9271;DHT22;4673;53.458;9.940;2023-04-25T03:53:39;4.70;92.70
9271;DHT22;4673;53.458;9.940;2023-04-25T03:56:05;4.70;92.40
9271;DHT22;4673;53.458;9.940;2023-04-25T03:58:31;4.70;91.40
9271;DHT22;4673;53.458;9.940;2023-04-25T04:00:56;4.80;91.60
9271;DHT22;4673;53.458;9.940;2023-04-25T04:03:22;4.80;91.70
9271;DHT22;4673;53.458;9.940;2023-04-25T04:05:47;4.80;90.70
9271;DHT22;4673;53.458;9.940;2023-04-25T04:08:13;4.80;90.60
9271;DHT22;4673;53.458;9.940;2023-04-25T04:10:39;4.70;90.40
9271;DHT22;4673;53.458;9.940;2023-04-25T04:13:04;4.70;90.00
9271;DHT22;4673;53.458;9.940;2023-04-25T04:15:30;4.70;89.30
9271;DHT22;4673;53.458;9.940;2023-04-25T04:17:58;5.00;89.00
9271;DHT22;4673;53.458;9.940;2023-04-25T04:20:28;4.80;89.20
9271;DHT22;4673;53.458;9.940;2023-04-25T04:22:54;4.90;89.20
9271;DHT22;4673;53.458;9.940;2023-04-25T04:25:20;4.90;88.10
9271;DHT22;4673;53.458;9.940;2023-04-25T04:27:45;5.00;87.90
9271;DHT22;4673;53.458;9.940;2023-04-25T04:30:11;4.90;88.20
9271;DHT22;4673;53.458;9.940;2023-04-25T04:32:37;4.90;87.40
9271;DHT22;4673;53.458;9.940;2023-04-25T04:35:04;5.00;87.90
9271;DHT22;4673;53.458;9.940;2023-04-25T04:37:30;5.00;87.40
9271;DHT22;4673;53.458;9.940;2023-04-25T04:39:55;5.00;87.00
9271;DHT22;4673;53.458;9.940;2023-04-25T04:42:21;5.00;86.60
9271;DHT22;4673;53.458;9.940;2023-04-25T04:44:47;5.00;86.20
9271;DHT22;4673;53.458;9.940;2023-04-25T04:47:13;5.10;85.90
9271;DHT22;4673;53.458;9.940;2023-04-25T04:49:39;5.10;85.20
9271;DHT22;4673;53.458;9.940;2023-04-25T04:52:05;5.10;85.10
9271;DHT22;4673;53.458;9.940;2023-04-25T04:54:31;5.30;84.80
9271;DHT22;4673;53.458;9.940;2023-04-25T04:56:58;5.20;84.70
9271;DHT22;4673;53.458;9.940;2023-04-25T04:59:23;5.40;84.90
9271;DHT22;4673;53.458;9.940;2023-04-25T05:01:49;5.50;84.00
9271;DHT22;4673;53.458;9.940;2023-04-25T05:04:15;5.60;83.40
9271;DHT22;4673;53.458;9.940;2023-04-25T05:06:40;5.90;83.50
9271;DHT22;4673;53.458;9.940;2023-04-25T05:09:06;5.80;82.60
9271;DHT22;4673;53.458;9.940;2023-04-25T05:11:32;5.80;82.40
9271;DHT22;4673;53.458;9.940;2023-04-25T05:13:57;5.80;82.70
9271;DHT22;4673;53.458;9.940;2023-04-25T05:16:23;5.90;82.30
9271;DHT22;4673;53.458;9.940;2023-04-25T05:18:49;5.90;82.60
9271;DHT22;4673;53.458;9.940;2023-04-25T05:21:14;5.90;82.10
9271;DHT22;4673;53.458;9.940;2023-04-25T05:23:40;6.00;81.80
9271;DHT22;4673;53.458;9.940;2023-04-25T05:26:06;6.00;81.60
9271;DHT22;4673;53.458;9.940;2023-04-25T05:28:41;6.10;82.00
9271;DHT22;4673;53.458;9.940;2023-04-25T05:31:09;6.10;81.80
9271;DHT22;4673;53.458;9.940;2023-04-25T05:33:35;6.20;81.80
9271;DHT22;4673;53.458;9.940;2023-04-25T05:36:00;6.10;81.00
9271;DHT22;4673;53.458;9.940;2023-04-25T05:38:26;6.10;80.80
9271;DHT22;4673;53.458;9.940;2023-04-25T05:40:52;6.10;81.90
9271;DHT22;4673;53.458;9.940;2023-04-25T05:43:18;6.10;82.20
9271;DHT22;4673;53.458;9.940;2023-04-25T05:45:43;6.10;82.40
9271;DHT22;4673;53.458;9.940;2023-04-25T05:48:09;6.20;82.50
9271;DHT22;4673;53.458;9.940;2023-04-25T05:50:34;6.20;81.70
9271;DHT22;4673;53.458;9.940;2023-04-25T05:53:00;6.10;81.20
9271;DHT22;4673;53.458;9.940;2023-04-25T05:55:26;6.30;82.40
9271;DHT22;4673;53.458;9.940;2023-04-25T05:57:51;6.40;81.70
9271;DHT22;4673;53.458;9.940;2023-04-25T06:00:17;6.60;81.90
9271;DHT22;4673;53.458;9.940;2023-04-25T06:02:44;6.90;81.80
9271;DHT22;4673;53.458;9.940;2023-04-25T06:05:10;7.00;79.70
9271;DHT22;4673;53.458;9.940;2023-04-25T06:07:35;6.90;78.90
9271;DHT22;4673;53.458;9.940;2023-04-25T06:10:01;7.00;79.40
9271;DHT22;4673;53.458;9.940;2023-04-25T06:12:27;7.10;78.60
9271;DHT22;4673;53.458;9.940;2023-04-25T06:14:52;7.40;77.90
9271;DHT22;4673;53.458;9.940;2023-04-25T06:17:18;7.40;77.40
9271;DHT22;4673;53.458;9.940;2023-04-25T06:19:43;7.50;76.50
9271;DHT22;4673;53.458;9.940;2023-04-25T06:22:10;7.60;75.20
9271;DHT22;4673;53.458;9.940;2023-04-25T06:24:35;7.40;73.90
9271;DHT22;4673;53.458;9.940;2023-04-25T06:27:01;7.40;75.30
9271;DHT22;4673;53.458;9.940;2023-04-25T06:29:27;7.50;75.40
9271;DHT22;4673;53.458;9.940;2023-04-25T06:31:52;7.50;74.40
9271;DHT22;4673;53.458;9.940;2023-04-25T06:34:18;7.50;73.80
9271;DHT22;4673;53.458;9.940;2023-04-25T06:36:43;7.20;72.70
9271;DHT22;4673;53.458;9.940;2023-04-25T06:39:10;7.00;73.70
9271;DHT22;4673;53.458;9.940;2023-04-25T06:41:35;7.00;74.60
9271;DHT22;4673;53.458;9.940;2023-04-25T06:44:01;7.00;74.90
9271;DHT22;4673;53.458;9.940;2023-04-25T06:46:27;7.10;74.20
9271;DHT22;4673;53.458;9.940;2023-04-25T06:48:52;7.10;74.30
9271;DHT22;4673;53.458;9.940;2023-04-25T06:51:18;7.20;74.70
9271;DHT22;4673;53.458;9.940;2023-04-25T06:53:44;7.40;74.00
9271;DHT22;4673;53.458;9.940;2023-04-25T06:56:09;7.60;72.10
9271;DHT22;4673;53.458;9.940;2023-04-25T06:58:35;7.60;71.50
9271;DHT22;4673;53.458;9.940;2023-04-25T07:01:01;7.70;72.70
9271;DHT22;4673;53.458;9.940;2023-04-25T07:03:26;8.00;72.20
9271;DHT22;4673;53.458;9.940;2023-04-25T07:05:52;8.10;71.60
9271;DHT22;4673;53.458;9.940;2023-04-25T07:08:17;8.30;71.30
9271;DHT22;4673;53.458;9.940;2023-04-25T07:10:43;8.40;71.20
9271;DHT22;4673;53.458;9.940;2023-04-25T07:13:09;8.30;70.40
9271;DHT22;4673;53.458;9.940;2023-04-25T07:15:35;8.50;71.20
9271;DHT22;4673;53.458;9.940;2023-04-25T07:18:01;8.60;70.70
9271;DHT22;4673;53.458;9.940;2023-04-25T07:20:27;8.40;69.20
9271;DHT22;4673;53.458;9.940;2023-04-25T07:22:53;8.50;70.30
9271;DHT22;4673;53.458;9.940;2023-04-25T07:25:19;8.50;68.00
9271;DHT22;4673;53.458;9.940;2023-04-25T07:27:45;8.60;69.20
9271;DHT22;4673;53.458;9.940;2023-04-25T07:30:11;8.80;68.80
9271;DHT22;4673;53.458;9.940;2023-04-25T07:32:37;8.80;68.10
9271;DHT22;4673;53.458;9.940;2023-04-25T07:35:03;8.70;67.40
9271;DHT22;4673;53.458;9.940;2023-04-25T07:37:29;8.30;67.70
9271;DHT22;4673;53.458;9.940;2023-04-25T07:39:55;8.30;68.90
9271;DHT22;4673;53.458;9.940;2023-04-25T07:42:20;8.40;69.10
9271;DHT22;4673;53.458;9.940;2023-04-25T07:44:46;8.50;68.50
9271;DHT22;4673;53.458;9.940;2023-04-25T07:47:12;8.70;68.40
9271;DHT22;4673;53.458;9.940;2023-04-25T07:49:38;8.70;67.60
9271;DHT22;4673;53.458;9.940;2023-04-25T07:52:05;8.90;67.40
9271;DHT22;4673;53.458;9.940;2023-04-25T07:54:31;9.30;66.10
9271;DHT22;4673;53.458;9.940;2023-04-25T07:56:57;9.30;64.90
9271;DHT22;4673;53.458;9.940;2023-04-25T07:59:23;9.50;64.20
9271;DHT22;4673;53.458;9.940;2023-04-25T08:01:49;9.80;63.70
9271;DHT22;4673;53.458;9.940;2023-04-25T08:04:16;10.00;61.40
9271;DHT22;4673;53.458;9.940;2023-04-25T08:06:42;10.20;59.10
9271;DHT22;4673;53.458;9.940;2023-04-25T08:09:08;10.20;53.90
9271;DHT22;4673;53.458;9.940;2023-04-25T08:11:35;10.00;55.50
9271;DHT22;4673;53.458;9.940;2023-04-25T08:14:00;9.80;53.80
9271;DHT22;4673;53.458;9.940;2023-04-25T08:16:29;9.70;54.70
9271;DHT22;4673;53.458;9.940;2023-04-25T08:18:55;9.80;56.30
9271;DHT22;4673;53.458;9.940;2023-04-25T08:21:21;10.00;55.90
9271;DHT22;4673;53.458;9.940;2023-04-25T08:23:46;9.80;52.90
9271;DHT22;4673;53.458;9.940;2023-04-25T08:26:12;9.50;53.50
9271;DHT22;4673;53.458;9.940;2023-04-25T08:28:38;9.30;56.10
9271;DHT22;4673;53.458;9.940;2023-04-25T08:31:04;9.50;54.70
9271;DHT22;4673;53.458;9.940;2023-04-25T08:33:29;9.50;54.00
9271;DHT22;4673;53.458;9.940;2023-04-25T08:35:55;9.30;53.40
9271;DHT22;4673;53.458;9.940;2023-04-25T08:38:21;9.00;52.70
9271;DHT22;4673;53.458;9.940;2023-04-25T08:40:50;8.90;53.90
9271;DHT22;4673;53.458;9.940;2023-04-25T08:43:19;8.60;54.10
9271;DHT22;4673;53.458;9.940;2023-04-25T08:45:46;8.70;54.40
9271;DHT22;4673;53.458;9.940;2023-04-25T08:48:14;8.80;53.80
9271;DHT22;4673;53.458;9.940;2023-04-25T08:50:51;8.70;52.40
9271;DHT22;4673;53.458;9.940;2023-04-25T08:53:25;8.90;55.50
9271;DHT22;4673;53.458;9.940;2023-04-25T08:55:52;9.10;53.10
9271;DHT22;4673;53.458;9.940;2023-04-25T08:58:18;9.00;51.50
9271;DHT22;4673;53.458;9.940;2023-04-25T09:00:46;8.70;52.80
9271;DHT22;4673;53.458;9.940;2023-04-25T09:03:12;8.90;52.00
9271;DHT22;4673;53.458;9.940;2023-04-25T09:05:40;8.70;52.60
9271;DHT22;4673;53.458;9.940;2023-04-25T09:08:05;8.10;55.50
9271;DHT22;4673;53.458;9.940;2023-04-25T09:10:31;7.30;64.90
9271;DHT22;4673;53.458;9.940;2023-04-25T09:15:31;5.70;78.00
9271;DHT22;4673;53.458;9.940;2023-04-25T09:17:58;5.60;81.30
9271;DHT22;4673;53.458;9.940;2023-04-25T09:20:24;5.60;83.40
9271;DHT22;4673;53.458;9.940;2023-04-25T09:23:04;5.70;85.00
9271;DHT22;4673;53.458;9.940;2023-04-25T09:25:34;5.80;86.10
9271;DHT22;4673;53.458;9.940;2023-04-25T09:28:04;6.20;87.60
9271;DHT22;4673;53.458;9.940;2023-04-25T09:30:31;6.50;87.30
9271;DHT22;4673;53.458;9.940;2023-04-25T09:33:04;6.70;86.30
9271;DHT22;4673;53.458;9.940;2023-04-25T09:35:38;7.00;85.60
9271;DHT22;4673;53.458;9.940;2023-04-25T09:38:09;7.20;84.60
9271;DHT22;4673;53.458;9.940;2023-04-25T09:40:39;7.50;83.30
9271;DHT22;4673;53.458;9.940;2023-04-25T09:43:18;7.60;79.60
9271;DHT22;4673;53.458;9.940;2023-04-25T09:45:44;7.70;78.70
9271;DHT22;4673;53.458;9.940;2023-04-25T09:48:11;7.80;79.30
9271;DHT22;4673;53.458;9.940;2023-04-25T09:50:38;7.80;75.00
9271;DHT22;4673;53.458;9.940;2023-04-25T09:53:05;8.00;73.00
9271;DHT22;4673;53.458;9.940;2023-04-25T09:55:34;7.90;70.00
9271;DHT22;4673;53.458;9.940;2023-04-25T09:58:04;7.70;73.00
9271;DHT22;4673;53.458;9.940;2023-04-25T10:00:32;7.70;75.90
9271;DHT22;4673;53.458;9.940;2023-04-25T10:03:01;7.70;76.90
9271;DHT22;4673;53.458;9.940;2023-04-25T10:05:32;7.80;75.20
9271;DHT22;4673;53.458;9.940;2023-04-25T10:08:02;7.70;74.30
9271;DHT22;4673;53.458;9.940;2023-04-25T10:10:32;7.90;76.50
9271;DHT22;4673;53.458;9.940;2023-04-25T10:13:05;8.00;68.00
9271;DHT22;4673;53.458;9.940;2023-04-25T10:15:34;8.00;71.00
9271;DHT22;4673;53.458;9.940;2023-04-25T10:18:01;8.30;69.10
9271;DHT22;4673;53.458;9.940;2023-04-25T10:20:27;8.70;70.10
9271;DHT22;4673;53.458;9.940;2023-04-25T10:22:55;8.90;67.60
9271;DHT22;4673;53.458;9.940;2023-04-25T10:25:23;9.10;66.40
9271;DHT22;4673;53.458;9.940;2023-04-25T10:27:53;9.30;64.90
9271;DHT22;4673;53.458;9.940;2023-04-25T10:30:19;9.40;61.60
9271;DHT22;4673;53.458;9.940;2023-04-25T10:32:45;9.40;63.70
9271;DHT22;4673;53.458;9.940;2023-04-25T10:35:29;9.50;63.80
9271;DHT22;4673;53.458;9.940;2023-04-25T10:38:11;9.20;61.40
9271;DHT22;4673;53.458;9.940;2023-04-25T10:40:39;8.80;58.90
9271;DHT22;4673;53.458;9.940;2023-04-25T10:43:42;8.70;60.10
9271;DHT22;4673;53.458;9.940;2023-04-25T10:46:25;8.50;60.40
9271;DHT22;4673;53.458;9.940;2023-04-25T10:48:55;7.60;61.40
9271;DHT22;4673;53.458;9.940;2023-04-25T10:51:26;7.50;65.80
9271;DHT22;4673;53.458;9.940;2023-04-25T10:59:15;8.40;66.20
9271;DHT22;4673;53.458;9.940;2023-04-25T11:01:49;8.50;61.40
9271;DHT22;4673;53.458;9.940;2023-04-25T11:09:24;8.40;61.40
9271;DHT22;4673;53.458;9.940;2023-04-25T11:11:56;8.50;62.20
9271;DHT22;4673;53.458;9.940;2023-04-25T11:14:22;8.70;61.70
9271;DHT22;4673;53.458;9.940;2023-04-25T11:16:56;9.00;61.50
9271;DHT22;4673;53.458;9.940;2023-04-25T11:19:22;9.20;61.10
9271;DHT22;4673;53.458;9.940;2023-04-25T11:21:48;9.20;58.40
9271;DHT22;4673;53.458;9.940;2023-04-25T11:24:16;9.00;59.40
9271;DHT22;4673;53.458;9.940;2023-04-25T11:26:42;8.80;56.30
9271;DHT22;4673;53.458;9.940;2023-04-25T11:29:08;8.90;59.10
9271;DHT22;4673;53.458;9.940;2023-04-25T11:31:34;8.70;60.00
9271;DHT22;4673;53.458;9.940;2023-04-25T11:34:00;8.90;58.80
9271;DHT22;4673;53.458;9.940;2023-04-25T11:36:26;9.00;57.80
9271;DHT22;4673;53.458;9.940;2023-04-25T11:38:52;9.10;57.90
9271;DHT22;4673;53.458;9.940;2023-04-25T11:41:19;9.20;56.30
9271;DHT22;4673;53.458;9.940;2023-04-25T11:43:46;9.50;52.50
9271;DHT22;4673;53.458;9.940;2023-04-25T11:46:11;9.30;52.30
9271;DHT22;4673;53.458;9.940;2023-04-25T11:48:41;8.70;54.60
9271;DHT22;4673;53.458;9.940;2023-04-25T11:51:07;7.90;56.60
9271;DHT22;4673;53.458;9.940;2023-04-25T11:53:33;7.60;58.00
9271;DHT22;4673;53.458;9.940;2023-04-25T11:55:59;7.40;60.80
9271;DHT22;4673;53.458;9.940;2023-04-25T11:58:28;7.50;60.80
9271;DHT22;4673;53.458;9.940;2023-04-25T12:00:53;7.80;62.90
9271;DHT22;4673;53.458;9.940;2023-04-25T12:03:19;8.30;61.70
9271;DHT22;4673;53.458;9.940;2023-04-25T12:05:45;8.50;58.60
9271;DHT22;4673;53.458;9.940;2023-04-25T12:08:15;8.60;58.00
9271;DHT22;4673;53.458;9.940;2023-04-25T12:10:43;8.70;58.40
9271;DHT22;4673;53.458;9.940;2023-04-25T12:13:20;8.80;58.20
9271;DHT22;4673;53.458;9.940;2023-04-25T12:15:46;9.00;57.00
9271;DHT22;4673;53.458;9.940;2023-04-25T12:18:11;9.40;55.10
9271;DHT22;4673;53.458;9.940;2023-04-25T12:20:37;9.80;52.10
9271;DHT22;4673;53.458;9.940;2023-04-25T12:23:06;10.30;51.70
9271;DHT22;4673;53.458;9.940;2023-04-25T12:25:44;10.60;45.80
9271;DHT22;4673;53.458;9.940;2023-04-25T12:28:21;10.70;43.50
9271;DHT22;4673;53.458;9.940;2023-04-25T12:31:07;10.90;42.50
9271;DHT22;4673;53.458;9.940;2023-04-25T12:33:35;10.50;40.30
9271;DHT22;4673;53.458;9.940;2023-04-25T12:36:02;9.90;40.20
9271;DHT22;4673;53.458;9.940;2023-04-25T12:38:42;9.70;45.60
9271;DHT22;4673;53.458;9.940;2023-04-25T12:41:08;9.50;50.70
9271;DHT22;4673;53.458;9.940;2023-04-25T12:43:34;9.10;53.50
9271;DHT22;4673;53.458;9.940;2023-04-25T12:46:00;8.90;55.70
9271;DHT22;4673;53.458;9.940;2023-04-25T12:48:26;9.20;53.30
9271;DHT22;4673;53.458;9.940;2023-04-25T12:50:52;9.00;50.40
9271;DHT22;4673;53.458;9.940;2023-04-25T12:53:19;9.20;51.50
9271;DHT22;4673;53.458;9.940;2023-04-25T12:55:46;9.40;50.10
9271;DHT22;4673;53.458;9.940;2023-04-25T12:58:15;9.50;49.80
9271;DHT22;4673;53.458;9.940;2023-04-25T13:00:41;9.60;49.30
9271;DHT22;4673;53.458;9.940;2023-04-25T13:03:08;9.70;47.60
9271;DHT22;4673;53.458;9.940;2023-04-25T13:05:34;9.80;48.60
9271;DHT22;4673;53.458;9.940;2023-04-25T13:08:00;9.30;51.80
9271;DHT22;4673;53.458;9.940;2023-04-25T13:10:26;9.20;58.90
9271;DHT22;4673;53.458;9.940;2023-04-25T13:12:52;9.60;62.00
9271;DHT22;4673;53.458;9.940;2023-04-25T13:15:18;9.90;59.80
9271;DHT22;4673;53.458;9.940;2023-04-25T13:17:43;10.10;54.50
9271;DHT22;4673;53.458;9.940;2023-04-25T13:20:09;10.10;50.70
9271;DHT22;4673;53.458;9.940;2023-04-25T13:22:37;9.90;51.30
9271;DHT22;4673;53.458;9.940;2023-04-25T13:25:03;9.70;52.80
9271;DHT22;4673;53.458;9.940;2023-04-25T13:27:29;9.50;52.40
9271;DHT22;4673;53.458;9.940;2023-04-25T13:29:55;9.10;53.40
9271;DHT22;4673;53.458;9.940;2023-04-25T13:32:21;8.10;57.40
9271;DHT22;4673;53.458;9.940;2023-04-25T13:34:47;7.60;62.00
9271;DHT22;4673;53.458;9.940;2023-04-25T13:37:12;7.40;63.90
9271;DHT22;4673;53.458;9.940;2023-04-25T13:39:38;7.50;64.50
9271;DHT22;4673;53.458;9.940;2023-04-25T13:42:04;7.80;65.30
9271;DHT22;4673;53.458;9.940;2023-04-25T13:44:29;7.80;64.20
9271;DHT22;4673;53.458;9.940;2023-04-25T13:46:55;8.20;63.70
9271;DHT22;4673;53.458;9.940;2023-04-25T13:49:20;8.50;61.50
9271;DHT22;4673;53.458;9.940;2023-04-25T13:51:48;8.50;61.20
9271;DHT22;4673;53.458;9.940;2023-04-25T13:54:13;8.70;60.10
9271;DHT22;4673;53.458;9.940;2023-04-25T13:56:39;8.70;57.50
9271;DHT22;4673;53.458;9.940;2023-04-25T13:59:07;8.90;57.00
9271;DHT22;4673;53.458;9.940;2023-04-25T14:01:33;9.00;54.90
9271;DHT22;4673;53.458;9.940;2023-04-25T14:04:01;8.70;55.90
9271;DHT22;4673;53.458;9.940;2023-04-25T14:06:27;8.30;56.80
9271;DHT22;4673;53.458;9.940;2023-04-25T14:08:53;7.80;57.60
9271;DHT22;4673;53.458;9.940;2023-04-25T14:11:19;7.50;60.30
9271;DHT22;4673;53.458;9.940;2023-04-25T14:13:46;7.20;61.10
9271;DHT22;4673;53.458;9.940;2023-04-25T14:16:11;7.10;63.20
9271;DHT22;4673;53.458;9.940;2023-04-25T14:18:37;7.20;64.40
9271;DHT22;4673;53.458;9.940;2023-04-25T14:21:02;7.00;64.00
9271;DHT22;4673;53.458;9.940;2023-04-25T14:23:28;7.50;64.40
9271;DHT22;4673;53.458;9.940;2023-04-25T14:25:54;7.80;63.50
9271;DHT22;4673;53.458;9.940;2023-04-25T14:28:19;8.10;63.10
9271;DHT22;4673;53.458;9.940;2023-04-25T14:30:45;8.30;61.10
9271;DHT22;4673;53.458;9.940;2023-04-25T14:33:11;8.50;61.30
9271;DHT22;4673;53.458;9.940;2023-04-25T14:35:37;8.70;60.90
9271;DHT22;4673;53.458;9.940;2023-04-25T14:38:03;8.70;59.00
9271;DHT22;4673;53.458;9.940;2023-04-25T14:40:28;8.50;59.10
9271;DHT22;4673;53.458;9.940;2023-04-25T14:42:54;8.00;57.40
9271;DHT22;4673;53.458;9.940;2023-04-25T14:45:20;7.30;58.40
9271;DHT22;4673;53.458;9.940;2023-04-25T14:47:46;7.10;62.90
9271;DHT22;4673;53.458;9.940;2023-04-25T14:50:11;7.10;60.20
9271;DHT22;4673;53.458;9.940;2023-04-25T14:52:37;7.30;60.00
9271;DHT22;4673;53.458;9.940;2023-04-25T14:55:03;7.50;60.20
9271;DHT22;4673;53.458;9.940;2023-04-25T14:57:33;7.80;57.90
9271;DHT22;4673;53.458;9.940;2023-04-25T14:59:59;8.00;58.40
9271;DHT22;4673;53.458;9.940;2023-04-25T15:02:26;8.30;57.80
9271;DHT22;4673;53.458;9.940;2023-04-25T15:04:52;8.40;55.40
9271;DHT22;4673;53.458;9.940;2023-04-25T15:07:18;8.50;54.80
9271;DHT22;4673;53.458;9.940;2023-04-25T15:09:44;8.30;53.80
9271;DHT22;4673;53.458;9.940;2023-04-25T15:12:10;8.10;54.70
9271;DHT22;4673;53.458;9.940;2023-04-25T15:14:35;8.00;53.90
9271;DHT22;4673;53.458;9.940;2023-04-25T15:17:01;7.90;53.40
9271;DHT22;4673;53.458;9.940;2023-04-25T15:19:27;7.80;54.10
9271;DHT22;4673;53.458;9.940;2023-04-25T15:21:53;7.60;56.40
9271;DHT22;4673;53.458;9.940;2023-04-25T15:24:19;7.50;59.00
9271;DHT22;4673;53.458;9.940;2023-04-25T15:26:45;7.60;59.80
9271;DHT22;4673;53.458;9.940;2023-04-25T15:29:11;7.70;57.80
9271;DHT22;4673;53.458;9.940;2023-04-25T15:31:37;7.80;57.00
9271;DHT22;4673;53.458;9.940;2023-04-25T15:34:03;8.00;55.20
9271;DHT22;4673;53.458;9.940;2023-04-25T15:36:29;8.20;55.40
9271;DHT22;4673;53.458;9.940;2023-04-25T15:38:56;8.20;53.80
9271;DHT22;4673;53.458;9.940;2023-04-25T15:41:23;8.30;53.90
9271;DHT22;4673;53.458;9.940;2023-04-25T15:43:49;8.40;53.90
9271;DHT22;4673;53.458;9.940;2023-04-25T15:46:15;8.50;54.00
9271;DHT22;4673;53.458;9.940;2023-04-25T15:48:41;8.50;53.80
9271;DHT22;4673;53.458;9.940;2023-04-25T15:51:06;8.60;51.70
9271;DHT22;4673;53.458;9.940;2023-04-25T15:53:32;8.40;53.40
9271;DHT22;4673;53.458;9.940;2023-04-25T15:55:58;8.20;54.70
9271;DHT22;4673;53.458;9.940;2023-04-25T15:58:23;8.20;55.40
9271;DHT22;4673;53.458;9.940;2023-04-25T16:00:49;8.20;54.80
9271;DHT22;4673;53.458;9.940;2023-04-25T16:03:16;8.10;55.10
9271;DHT22;4673;53.458;9.940;2023-04-25T16:05:42;8.00;56.40
9271;DHT22;4673;53.458;9.940;2023-04-25T16:08:07;7.80;60.00
9271;DHT22;4673;53.458;9.940;2023-04-25T16:10:33;7.60;60.20
9271;DHT22;4673;53.458;9.940;2023-04-25T16:12:59;7.50;61.80
9271;DHT22;4673;53.458;9.940;2023-04-25T16:15:24;7.60;64.20
9271;DHT22;4673;53.458;9.940;2023-04-25T16:17:50;7.70;66.50
9271;DHT22;4673;53.458;9.940;2023-04-25T16:20:16;7.70;65.10
9271;DHT22;4673;53.458;9.940;2023-04-25T16:22:42;7.60;65.60
9271;DHT22;4673;53.458;9.940;2023-04-25T16:25:09;7.60;66.00
9271;DHT22;4673;53.458;9.940;2023-04-25T16:27:36;7.70;65.60
9271;DHT22;4673;53.458;9.940;2023-04-25T16:30:04;7.60;63.40
9271;DHT22;4673;53.458;9.940;2023-04-25T16:32:30;7.30;63.50
9271;DHT22;4673;53.458;9.940;2023-04-25T16:34:56;7.20;65.50
9271;DHT22;4673;53.458;9.940;2023-04-25T16:37:23;7.20;64.80
9271;DHT22;4673;53.458;9.940;2023-04-25T16:39:48;7.30;64.10
9271;DHT22;4673;53.458;9.940;2023-04-25T16:42:14;7.40;63.00
9271;DHT22;4673;53.458;9.940;2023-04-25T16:44:40;7.60;59.80
9271;DHT22;4673;53.458;9.940;2023-04-25T16:47:05;7.60;57.80
9271;DHT22;4673;53.458;9.940;2023-04-25T16:49:31;7.50;56.20
9271;DHT22;4673;53.458;9.940;2023-04-25T16:51:57;7.30;56.30
9271;DHT22;4673;53.458;9.940;2023-04-25T16:54:23;7.10;55.80
9271;DHT22;4673;53.458;9.940;2023-04-25T16:56:51;7.00;56.90